Terminal Aerodrome Forecast
Issued by NWS Omaha/Valley, NE

Home | Current Version | Previous Version | Text Only | Print | Product List | Glossary On
Versions: 1 2 3 4 5 6 7 8 9 10 11 12 13 14 15 16 17 18 19 20 21 22 23 24 25 26 27 28 29
000
FTUS43 KOAX 210827 AAA
TAFOFK
TAF AMD
KOFK 210827Z 2108/2206 19011KT P6SM SCT060 BKN120
      TEMPO 2110/2113 22012G23KT 6SM -SHRA BKN090
     FM211500 21008KT P6SM BKN100=

USA.gov is the U.S. government's official web portal to all federal, state and local government web resources and services.